createdAt,value
2023-03-02T00:01:04.540Z,-1.89
2023-03-02T00:03:32.609Z,-2.10
2023-03-02T00:06:03.321Z,-2.12
2023-03-02T00:08:31.114Z,-2.01
2023-03-02T00:10:59.833Z,-2.17
2023-03-02T00:13:29.028Z,-2.19
2023-03-02T00:15:57.314Z,-1.95
2023-03-02T00:18:26.475Z,-1.95
2023-03-02T00:20:55.154Z,-1.99
2023-03-02T00:23:22.653Z,-2.03
2023-03-02T00:25:50.778Z,-2.14
2023-03-02T00:28:18.829Z,-2.17
2023-03-02T00:30:47.105Z,-2.14
2023-03-02T00:33:14.960Z,-2.30
2023-03-02T00:35:44.729Z,-2.41
2023-03-02T00:38:12.560Z,-2.38
2023-03-02T00:40:44.975Z,-2.38
2023-03-02T00:43:12.839Z,-2.57
2023-03-02T00:45:40.850Z,-2.60
2023-03-02T00:48:08.974Z,-2.70
2023-03-02T00:50:39.865Z,-2.67
2023-03-02T00:53:09.112Z,-2.70
2023-03-02T00:55:40.012Z,-2.82
2023-03-02T00:58:10.810Z,-2.70
2023-03-02T01:00:38.814Z,-2.57
2023-03-02T01:03:06.541Z,-2.63
2023-03-02T01:05:37.029Z,-2.68
2023-03-02T01:08:05.213Z,-2.59
2023-03-02T01:10:35.090Z,-2.74
2023-03-02T01:13:02.861Z,-2.71
2023-03-02T01:15:31.194Z,-2.72
2023-03-02T01:17:59.140Z,-2.82
2023-03-02T01:20:27.370Z,-2.80
2023-03-02T01:22:55.413Z,-2.84
2023-03-02T01:25:23.786Z,-2.88
2023-03-02T01:27:53.297Z,-2.59
2023-03-02T01:30:21.422Z,-2.60
2023-03-02T01:32:49.060Z,-2.68
2023-03-02T01:35:17.558Z,-2.83
2023-03-02T01:37:45.174Z,-2.92
2023-03-02T01:40:14.707Z,-2.88
2023-03-02T01:42:56.938Z,-2.84
2023-03-02T01:45:47.833Z,-2.77
2023-03-02T01:48:18.745Z,-2.71
2023-03-02T01:50:48.038Z,-2.78
2023-03-02T01:53:16.798Z,-2.79
2023-03-02T01:55:46.126Z,-2.78
2023-03-02T01:58:16.883Z,-2.84
2023-03-02T02:00:45.803Z,-2.88
2023-03-02T02:03:16.883Z,-2.76
2023-03-02T02:05:49.219Z,-3.05
2023-03-02T02:08:16.836Z,-3.30
2023-03-02T02:10:44.918Z,-2.89
2023-03-02T02:13:14.174Z,-2.96
2023-03-02T02:15:42.312Z,-2.97
2023-03-02T02:18:09.984Z,-3.06
2023-03-02T02:20:40.602Z,-3.15
2023-03-02T02:23:20.167Z,-3.22
2023-03-02T02:26:04.634Z,-3.19
2023-03-02T02:28:37.979Z,-3.13
2023-03-02T02:31:11.067Z,-3.03
2023-03-02T02:33:40.674Z,-3.20
2023-03-02T02:36:15.666Z,-3.27
2023-03-02T02:38:47.892Z,-3.31
2023-03-02T02:41:21.193Z,-3.33
2023-03-02T02:43:49.650Z,-3.51
2023-03-02T02:46:20.532Z,-3.41
2023-03-02T02:48:48.308Z,-3.15
2023-03-02T02:51:21.714Z,-3.11
2023-03-02T02:53:54.144Z,-3.07
2023-03-02T02:56:25.099Z,-3.37
2023-03-02T02:58:55.544Z,-3.54
2023-03-02T03:01:24.522Z,-3.35
2023-03-02T03:03:55.091Z,-3.40
2023-03-02T03:06:26.530Z,-3.41
2023-03-02T03:08:57.820Z,-3.44
2023-03-02T03:11:29.837Z,-3.49
2023-03-02T03:14:07.595Z,-3.48
2023-03-02T03:16:37.779Z,-3.53
2023-03-02T03:19:16.159Z,-3.46
2023-03-02T03:21:44.387Z,-3.38
2023-03-02T03:24:15.324Z,-3.51
2023-03-02T03:26:44.998Z,-3.34
2023-03-02T03:29:14.367Z,-3.45
2023-03-02T03:31:42.906Z,-3.73
2023-03-02T03:34:10.526Z,-3.52
2023-03-02T03:36:38.597Z,-3.44
2023-03-02T03:39:06.484Z,-3.60
2023-03-02T03:41:34.696Z,-3.47
2023-03-02T03:44:04.223Z,-3.55
2023-03-02T03:46:33.287Z,-3.32
2023-03-02T03:49:01.324Z,-3.15
2023-03-02T03:51:29.395Z,-3.24
2023-03-02T03:53:57.063Z,-3.34
2023-03-02T03:56:25.219Z,-3.61
2023-03-02T03:58:53.122Z,-3.75
2023-03-02T04:01:22.742Z,-3.77
2023-03-02T04:03:50.497Z,-3.73
2023-03-02T04:06:18.648Z,-3.63
2023-03-02T04:08:46.268Z,-3.74
2023-03-02T04:11:14.318Z,-3.80
2023-03-02T04:13:41.864Z,-3.66
2023-03-02T04:16:09.842Z,-3.76
2023-03-02T04:18:38.997Z,-3.79
2023-03-02T04:21:07.165Z,-3.72
2023-03-02T04:23:34.734Z,-3.70
2023-03-02T04:26:03.108Z,-3.82
2023-03-02T04:28:30.920Z,-3.86
2023-03-02T04:30:59.313Z,-3.84
2023-03-02T04:33:26.942Z,-3.80
2023-03-02T04:35:56.788Z,-3.72
2023-03-02T04:38:27.161Z,-3.71
2023-03-02T04:40:55.842Z,-3.72
2023-03-02T04:43:24.344Z,-3.76
2023-03-02T04:45:53.648Z,-3.79
2023-03-02T04:48:22.151Z,-3.69
2023-03-02T04:50:50.847Z,-3.65
2023-03-02T04:53:20.147Z,-3.66
2023-03-02T04:55:48.506Z,-3.63
2023-03-02T04:58:16.134Z,-3.56
2023-03-02T05:00:44.351Z,-3.53
2023-03-02T05:03:11.971Z,-3.69
2023-03-02T05:05:40.186Z,-3.64
2023-03-02T05:08:07.877Z,-3.81
2023-03-02T05:10:40.261Z,-3.86
2023-03-02T05:13:07.943Z,-3.75
2023-03-02T05:15:38.516Z,-3.70
2023-03-02T05:18:09.625Z,-3.67
2023-03-02T05:20:38.110Z,-3.65
2023-03-02T05:23:09.078Z,-3.84
2023-03-02T05:25:39.830Z,-4.06
2023-03-02T05:28:07.462Z,-3.91
2023-03-02T05:30:35.552Z,-4.07
2023-03-02T05:33:03.296Z,-4.40
2023-03-02T05:35:31.604Z,-4.16
2023-03-02T05:37:59.342Z,-3.96
2023-03-02T05:40:28.016Z,-3.91
2023-03-02T05:42:57.167Z,-3.69
2023-03-02T05:45:29.071Z,-3.63
2023-03-02T05:47:56.762Z,-3.81
2023-03-02T05:50:24.734Z,-3.90
2023-03-02T05:52:52.370Z,-3.69
2023-03-02T05:55:20.809Z,-3.64
2023-03-02T05:57:48.458Z,-3.47
2023-03-02T06:00:19.276Z,-3.25
2023-03-02T06:02:47.102Z,-3.15
2023-03-02T06:05:16.937Z,-3.11
2023-03-02T06:07:44.956Z,-3.00
2023-03-02T06:10:14.534Z,-3.06
2023-03-02T06:12:42.239Z,-3.11
2023-03-02T06:15:10.577Z,-2.97
2023-03-02T06:17:39.657Z,-2.79
2023-03-02T06:20:09.276Z,-2.71
2023-03-02T06:22:37.363Z,-2.69
2023-03-02T06:25:06.024Z,-2.52
2023-03-02T06:27:33.746Z,-2.26
2023-03-02T06:30:02.198Z,-2.06
2023-03-02T06:32:29.851Z,-1.86
2023-03-02T06:34:59.332Z,-1.62
2023-03-02T06:37:27.160Z,-1.37
2023-03-02T06:39:55.297Z,-1.21
2023-03-02T06:42:23.229Z,-1.48
2023-03-02T06:44:51.235Z,-1.32
2023-03-02T06:47:18.989Z,-1.27
2023-03-02T06:49:47.064Z,-1.40
2023-03-02T06:52:16.181Z,-1.23
2023-03-02T06:54:44.173Z,-0.92
2023-03-02T06:57:11.823Z,-0.70
2023-03-02T06:59:39.881Z,-0.42
2023-03-02T07:02:07.641Z,-0.25
2023-03-02T07:04:35.760Z,-0.07
2023-03-02T07:07:03.710Z,-0.01
2023-03-02T07:09:34.675Z,0.15
2023-03-02T07:12:02.370Z,0.39
2023-03-02T07:14:30.548Z,0.48
2023-03-02T07:16:58.234Z,0.67
2023-03-02T07:19:26.515Z,0.81
2023-03-02T07:21:54.319Z,0.99
2023-03-02T07:24:22.478Z,1.24
2023-03-02T07:26:51.538Z,1.63
2023-03-02T07:29:21.502Z,2.03
2023-03-02T07:31:49.038Z,2.44
2023-03-02T07:34:17.002Z,2.66
2023-03-02T07:36:50.522Z,2.65
2023-03-02T07:39:27.455Z,2.64
2023-03-02T07:41:59.641Z,2.53
2023-03-02T07:44:28.069Z,2.58
2023-03-02T07:46:57.414Z,2.81
2023-03-02T07:49:25.409Z,2.76
2023-03-02T07:51:53.061Z,2.99
2023-03-02T07:54:21.309Z,2.80
2023-03-02T07:56:48.879Z,3.04
2023-03-02T07:59:18.226Z,3.01
2023-03-02T08:01:45.878Z,3.18
2023-03-02T08:04:14.015Z,3.78
2023-03-02T08:06:42.602Z,3.98
2023-03-02T08:09:10.916Z,4.36
2023-03-02T08:11:38.551Z,4.75
2023-03-02T08:14:06.642Z,5.21
2023-03-02T08:16:35.927Z,5.62
2023-03-02T08:19:04.540Z,5.75
2023-03-02T08:21:32.880Z,6.07
2023-03-02T08:24:01.783Z,6.30
2023-03-02T08:26:29.591Z,6.34
2023-03-02T08:28:58.378Z,6.29
2023-03-02T08:31:26.510Z,6.55
2023-03-02T08:33:56.273Z,6.96
2023-03-02T08:36:24.186Z,7.28
2023-03-02T08:38:52.417Z,7.45
2023-03-02T08:41:21.867Z,7.20
2023-03-02T08:43:50.102Z,6.39
2023-03-02T08:46:19.073Z,5.81
2023-03-02T08:48:48.477Z,5.75
2023-03-02T08:51:19.018Z,5.76
2023-03-02T08:53:49.720Z,5.79
2023-03-02T08:56:19.119Z,5.99
2023-03-02T08:58:47.985Z,6.45
2023-03-02T09:01:17.369Z,6.95
2023-03-02T09:03:46.249Z,7.36
2023-03-02T09:06:14.080Z,6.53
2023-03-02T09:08:44.209Z,6.06
2023-03-02T09:11:12.192Z,6.29
2023-03-02T09:13:40.722Z,6.62
2023-03-02T09:16:09.171Z,6.24
2023-03-02T09:18:37.319Z,6.16
2023-03-02T09:21:05.367Z,6.26
2023-03-02T09:23:34.227Z,6.86
2023-03-02T09:26:03.444Z,7.43
2023-03-02T09:28:31.759Z,7.09
2023-03-02T09:31:02.208Z,7.24
2023-03-02T09:33:31.682Z,7.64
2023-03-02T09:35:59.397Z,7.32
2023-03-02T09:38:27.754Z,7.58
2023-03-02T09:41:24.327Z,7.32
2023-03-02T09:44:02.141Z,6.49
2023-03-02T09:46:34.454Z,7.07
2023-03-02T09:49:18.259Z,7.37
2023-03-02T09:51:54.122Z,7.45
2023-03-02T09:54:23.481Z,7.23
2023-03-02T09:56:55.762Z,7.56
2023-03-02T09:59:27.893Z,7.97
2023-03-02T10:02:00.125Z,7.10
2023-03-02T10:04:31.622Z,6.69
2023-03-02T10:07:12.424Z,6.93
2023-03-02T10:09:52.240Z,7.21
2023-03-02T10:12:46.638Z,7.44
2023-03-02T10:15:21.990Z,7.43
2023-03-02T10:18:01.448Z,7.30
2023-03-02T10:20:36.835Z,7.42
2023-03-02T10:23:18.022Z,7.79
2023-03-02T10:25:50.795Z,7.84
2023-03-02T10:28:21.448Z,7.35
2023-03-02T10:30:54.055Z,7.85
2023-03-02T10:33:22.227Z,8.07
2023-03-02T10:35:52.764Z,7.82
2023-03-02T10:38:21.830Z,7.98
2023-03-02T10:40:54.463Z,8.18
2023-03-02T10:43:30.562Z,8.50
2023-03-02T10:46:01.481Z,8.97
2023-03-02T10:48:29.277Z,9.47
2023-03-02T10:50:58.875Z,9.60
2023-03-02T10:53:26.633Z,9.48
2023-03-02T10:55:54.672Z,9.78
2023-03-02T10:58:29.360Z,9.41
2023-03-02T11:00:59.328Z,9.10
2023-03-02T11:03:27.943Z,9.32
2023-03-02T11:05:57.767Z,9.48
2023-03-02T11:08:27.535Z,8.96
2023-03-02T11:11:00.482Z,8.72
2023-03-02T11:13:32.412Z,8.73
2023-03-02T11:16:01.861Z,8.88
2023-03-02T11:18:35.230Z,8.61
2023-03-02T11:21:06.481Z,8.45
2023-03-02T11:23:46.361Z,8.78
2023-03-02T11:26:21.486Z,8.49
2023-03-02T11:28:58.029Z,8.79
2023-03-02T11:31:34.084Z,9.04
2023-03-02T11:34:17.922Z,8.71
2023-03-02T11:37:00.292Z,8.71
2023-03-02T11:39:55.811Z,8.70
2023-03-02T11:42:28.794Z,8.91
2023-03-02T11:45:02.765Z,9.19
2023-03-02T11:47:33.840Z,9.38
2023-03-02T11:50:04.998Z,9.47
2023-03-02T11:52:37.927Z,9.46
2023-03-02T11:55:17.494Z,9.26
2023-03-02T11:57:49.087Z,10.04
2023-03-02T12:00:30.823Z,10.05
2023-03-02T12:03:01.082Z,9.83
2023-03-02T12:05:30.756Z,9.90
2023-03-02T12:08:00.681Z,9.86
2023-03-02T12:10:34.937Z,10.08
2023-03-02T12:13:14.473Z,10.32
2023-03-02T12:15:45.428Z,11.10
2023-03-02T12:18:45.207Z,11.86
2023-03-02T12:21:17.401Z,11.44
2023-03-02T12:23:58.659Z,10.73
2023-03-02T12:26:36.156Z,11.04
2023-03-02T12:29:21.599Z,10.47
2023-03-02T12:31:52.343Z,10.35
2023-03-02T12:34:34.211Z,10.08
2023-03-02T12:37:07.421Z,9.58
2023-03-02T12:39:50.836Z,10.03
2023-03-02T12:42:38.985Z,10.29
2023-03-02T12:45:21.000Z,10.25
2023-03-02T12:47:57.135Z,10.34
2023-03-02T12:50:29.043Z,10.46
2023-03-02T12:53:01.259Z,10.54
2023-03-02T12:55:30.543Z,10.09
2023-03-02T12:58:00.820Z,10.37
2023-03-02T13:00:31.647Z,10.51
2023-03-02T13:03:02.445Z,10.66
2023-03-02T13:05:34.449Z,11.02
2023-03-02T13:08:04.878Z,11.16
2023-03-02T13:10:36.804Z,11.06
2023-03-02T13:13:16.255Z,10.87
2023-03-02T13:15:52.203Z,11.36
2023-03-02T13:18:24.137Z,10.79
2023-03-02T13:20:52.440Z,10.29
2023-03-02T13:23:20.619Z,10.24
2023-03-02T13:25:50.673Z,10.35
2023-03-02T13:28:29.449Z,10.16
2023-03-02T13:31:00.022Z,10.41
2023-03-02T13:33:31.342Z,10.44
2023-03-02T13:36:00.192Z,10.43
2023-03-02T13:38:33.048Z,10.43
2023-03-02T13:41:01.218Z,10.64
2023-03-02T13:43:37.499Z,11.12
2023-03-02T13:46:24.575Z,11.50
2023-03-02T13:49:13.945Z,11.89
2023-03-02T13:51:44.064Z,11.19
2023-03-02T13:54:21.101Z,11.59
2023-03-02T13:56:50.548Z,11.94
2023-03-02T13:59:20.190Z,12.37
2023-03-02T14:01:49.097Z,12.22
2023-03-02T14:04:22.538Z,12.51
2023-03-02T14:06:51.898Z,12.97
2023-03-02T14:09:22.562Z,13.33
2023-03-02T14:11:53.200Z,13.51
2023-03-02T14:14:23.606Z,13.20
2023-03-02T14:16:52.292Z,13.03
2023-03-02T14:19:21.399Z,13.17
2023-03-02T14:21:49.355Z,13.31
2023-03-02T14:24:16.960Z,13.86
2023-03-02T14:26:47.370Z,13.89
2023-03-02T14:29:21.699Z,14.12
2023-03-02T14:31:49.701Z,14.26
2023-03-02T14:34:17.815Z,14.12
2023-03-02T14:36:50.743Z,14.16
2023-03-02T14:39:23.040Z,14.29
2023-03-02T14:41:54.225Z,13.90
2023-03-02T14:44:22.908Z,14.00
2023-03-02T14:46:51.545Z,14.10
2023-03-02T14:49:19.292Z,13.41
2023-03-02T14:51:58.882Z,12.86
2023-03-02T14:54:27.362Z,12.84
2023-03-02T14:56:55.525Z,12.58
2023-03-02T14:59:24.552Z,12.69
2023-03-02T15:01:52.624Z,12.95
2023-03-02T15:04:20.255Z,12.92
2023-03-02T15:06:50.225Z,13.00
2023-03-02T15:09:18.009Z,13.16
2023-03-02T15:11:45.978Z,13.29
2023-03-02T15:14:14.016Z,13.16
2023-03-02T15:16:42.300Z,13.02
2023-03-02T15:19:10.086Z,13.09
2023-03-02T15:21:38.141Z,12.96
2023-03-02T15:24:08.110Z,12.55
2023-03-02T15:26:36.548Z,12.66
2023-03-02T15:29:04.187Z,12.47
2023-03-02T15:31:33.794Z,12.16
2023-03-02T15:34:01.540Z,12.18
2023-03-02T15:36:29.988Z,12.03
2023-03-02T15:38:57.595Z,12.16
2023-03-02T15:41:27.426Z,12.17
2023-03-02T15:43:55.383Z,11.77
2023-03-02T15:46:24.337Z,11.57
2023-03-02T15:48:52.850Z,11.32
2023-03-02T15:51:21.197Z,11.14
2023-03-02T15:53:48.777Z,11.19
2023-03-02T15:56:17.437Z,11.56
2023-03-02T15:58:50.249Z,11.64
2023-03-02T16:01:18.733Z,11.60
2023-03-02T16:03:46.439Z,11.59
2023-03-02T16:06:14.760Z,11.49
2023-03-02T16:08:42.477Z,11.23
2023-03-02T16:11:11.345Z,11.01
2023-03-02T16:13:39.147Z,10.93
2023-03-02T16:16:10.068Z,10.68
2023-03-02T16:18:37.792Z,10.52
2023-03-02T16:21:06.242Z,10.32
2023-03-02T16:23:34.098Z,10.04
2023-03-02T16:26:08.215Z,9.45
2023-03-02T16:28:36.626Z,8.75
2023-03-02T16:31:06.292Z,8.87
2023-03-02T16:33:38.944Z,8.72
2023-03-02T16:36:09.142Z,8.65
2023-03-02T16:38:36.892Z,8.65
2023-03-02T16:41:10.675Z,8.52
2023-03-02T16:43:43.676Z,8.37
2023-03-02T16:46:12.377Z,7.89
2023-03-02T16:48:41.542Z,7.33
2023-03-02T16:51:09.988Z,6.88
2023-03-02T16:53:38.105Z,6.60
2023-03-02T16:56:06.733Z,6.13
2023-03-02T16:58:34.294Z,6.13
2023-03-02T17:01:02.524Z,5.89
2023-03-02T17:03:30.458Z,5.54
2023-03-02T17:06:00.766Z,5.39
2023-03-02T17:08:29.680Z,5.49
2023-03-02T17:10:57.987Z,5.32
2023-03-02T17:13:25.820Z,5.27
2023-03-02T17:15:58.105Z,5.19
2023-03-02T17:18:26.301Z,5.10
2023-03-02T17:20:56.705Z,4.83
2023-03-02T17:23:26.669Z,5.02
2023-03-02T17:25:55.319Z,5.07
2023-03-02T17:28:23.217Z,4.94
2023-03-02T17:30:51.748Z,4.87
2023-03-02T17:33:19.437Z,4.78
2023-03-02T17:35:47.929Z,4.90
2023-03-02T17:38:19.143Z,4.96
2023-03-02T17:40:48.904Z,4.92
2023-03-02T17:43:16.643Z,5.02
2023-03-02T17:45:45.334Z,5.00
2023-03-02T17:48:12.942Z,4.62
2023-03-02T17:50:41.659Z,4.52
2023-03-02T17:53:09.408Z,4.35
2023-03-02T17:55:38.099Z,4.32
2023-03-02T17:58:07.720Z,4.31
2023-03-02T18:00:36.285Z,4.00
2023-03-02T18:03:04.020Z,4.07
2023-03-02T18:05:32.778Z,3.98
2023-03-02T18:08:00.885Z,3.95
2023-03-02T18:10:29.034Z,4.01
2023-03-02T18:12:56.644Z,4.11
2023-03-02T18:15:26.692Z,4.16
2023-03-02T18:17:54.321Z,4.16
2023-03-02T18:20:22.752Z,4.20
2023-03-02T18:22:50.654Z,4.18
2023-03-02T18:25:18.747Z,4.21
2023-03-02T18:27:46.580Z,4.10
2023-03-02T18:30:15.578Z,4.12
2023-03-02T18:32:44.846Z,4.15
2023-03-02T18:35:13.087Z,4.16
2023-03-02T18:37:41.102Z,4.21
2023-03-02T18:40:11.486Z,4.11
2023-03-02T18:42:39.336Z,4.16
2023-03-02T18:45:08.930Z,4.06
2023-03-02T18:47:36.694Z,4.14
2023-03-02T18:50:11.175Z,3.96
2023-03-02T18:52:38.702Z,3.62
2023-03-02T18:55:07.515Z,3.71
2023-03-02T18:57:38.167Z,3.66
2023-03-02T19:00:10.615Z,3.56
2023-03-02T19:02:38.365Z,3.51
2023-03-02T19:05:08.597Z,3.62
2023-03-02T19:07:36.325Z,3.52
2023-03-02T19:10:05.608Z,3.55
2023-03-02T19:12:33.635Z,3.53
2023-03-02T19:15:02.003Z,3.49
2023-03-02T19:17:29.840Z,3.50
2023-03-02T19:19:58.326Z,3.49
2023-03-02T19:22:27.937Z,3.39
2023-03-02T19:24:59.014Z,3.42
2023-03-02T19:27:26.796Z,3.28
2023-03-02T19:29:55.550Z,3.13
2023-03-02T19:32:23.295Z,3.19
2023-03-02T19:34:51.612Z,3.25
2023-03-02T19:37:19.393Z,3.25
2023-03-02T19:39:48.944Z,3.28
2023-03-02T19:42:16.495Z,3.28
2023-03-02T19:44:45.114Z,2.92
2023-03-02T19:47:13.748Z,2.63
2023-03-02T19:49:41.811Z,2.59
2023-03-02T19:52:09.928Z,2.46
2023-03-02T19:54:38.348Z,2.33
2023-03-02T19:57:08.484Z,2.53
2023-03-02T19:59:36.747Z,2.64
2023-03-02T20:02:04.481Z,2.42
2023-03-02T20:04:32.757Z,2.54
2023-03-02T20:07:00.645Z,2.70
2023-03-02T20:09:28.752Z,2.42
2023-03-02T20:11:56.569Z,2.48
2023-03-02T20:14:34.271Z,2.59
2023-03-02T20:17:02.537Z,2.57
2023-03-02T20:19:31.144Z,2.72
2023-03-02T20:21:59.258Z,2.79
2023-03-02T20:24:27.742Z,2.60
2023-03-02T20:26:57.389Z,2.54
2023-03-02T20:29:26.937Z,2.64
2023-03-02T20:31:54.691Z,2.71
2023-03-02T20:34:22.679Z,2.57
2023-03-02T20:36:50.357Z,2.57
2023-03-02T20:39:20.721Z,2.45
2023-03-02T20:41:49.226Z,2.30
2023-03-02T20:44:17.446Z,2.38
2023-03-02T20:46:50.243Z,2.49
2023-03-02T20:49:21.042Z,2.78
2023-03-02T20:51:50.309Z,2.75
2023-03-02T20:54:20.024Z,2.87
2023-03-02T20:56:48.146Z,2.92
2023-03-02T20:59:16.699Z,2.90
2023-03-02T21:01:44.767Z,2.91
2023-03-02T21:04:14.486Z,2.86
2023-03-02T21:06:42.596Z,2.91
2023-03-02T21:09:10.968Z,2.88
2023-03-02T21:11:39.265Z,3.05
2023-03-02T21:14:07.904Z,3.13
2023-03-02T21:16:37.901Z,3.26
2023-03-02T21:19:08.610Z,3.16
2023-03-02T21:21:41.984Z,3.21
2023-03-02T21:24:12.584Z,3.02
2023-03-02T21:26:40.434Z,3.04
2023-03-02T21:29:08.696Z,2.84
2023-03-02T21:31:36.408Z,2.71
2023-03-02T21:34:04.933Z,2.68
2023-03-02T21:36:32.848Z,2.72
2023-03-02T21:39:04.528Z,2.29
2023-03-02T21:41:32.341Z,2.00
2023-03-02T21:44:00.554Z,2.19
2023-03-02T21:46:28.624Z,2.46
2023-03-02T21:48:56.883Z,2.56
2023-03-02T21:51:24.436Z,2.54
2023-03-02T21:53:52.607Z,2.67
2023-03-02T21:56:24.211Z,2.67
2023-03-02T21:58:54.722Z,2.69
2023-03-02T22:01:22.970Z,2.72
2023-03-02T22:03:51.150Z,2.81
2023-03-02T22:06:21.113Z,2.69
2023-03-02T22:08:49.239Z,2.82
2023-03-02T22:11:19.974Z,2.96
2023-03-02T22:13:50.380Z,3.08
2023-03-02T22:16:20.372Z,3.00
2023-03-02T22:18:52.924Z,3.03
2023-03-02T22:21:26.527Z,3.09
2023-03-02T22:24:03.123Z,3.08
2023-03-02T22:26:31.210Z,3.12
2023-03-02T22:29:12.727Z,3.06
2023-03-02T22:31:44.581Z,2.98
2023-03-02T22:34:15.120Z,2.92
2023-03-02T22:36:43.235Z,2.99
2023-03-02T22:39:17.180Z,3.11
2023-03-02T22:41:44.675Z,2.64
2023-03-02T22:44:14.576Z,2.71
2023-03-02T22:46:42.503Z,2.87
2023-03-02T22:49:17.164Z,2.92
2023-03-02T22:51:45.058Z,3.09
2023-03-02T22:54:20.374Z,3.15
2023-03-02T22:56:50.063Z,3.09
2023-03-02T22:59:23.131Z,3.04
2023-03-02T23:01:51.418Z,2.90
2023-03-02T23:04:22.022Z,2.89
2023-03-02T23:06:51.299Z,2.93
2023-03-02T23:09:22.375Z,3.07
2023-03-02T23:11:50.662Z,3.15
2023-03-02T23:14:26.028Z,3.07
2023-03-02T23:16:57.557Z,3.08
2023-03-02T23:21:54.880Z,3.30
2023-03-02T23:24:22.951Z,3.37
2023-03-02T23:26:51.588Z,3.33
2023-03-02T23:29:20.666Z,3.22
2023-03-02T23:31:50.410Z,3.22
2023-03-02T23:34:18.690Z,3.19
2023-03-02T23:36:46.582Z,2.89
2023-03-02T23:39:14.626Z,2.82
2023-03-02T23:41:42.333Z,2.93
2023-03-02T23:44:10.780Z,2.82
2023-03-02T23:46:38.434Z,2.54
2023-03-02T23:49:08.145Z,2.50
2023-03-02T23:51:35.914Z,2.58
2023-03-02T23:54:04.945Z,2.65
2023-03-02T23:56:32.985Z,2.68
2023-03-02T23:59:01.455Z,2.76
